createdAt,value
2018-08-23T00:00:45.245Z,95646.00
2018-08-23T00:06:14.446Z,95644.00
2018-08-23T00:11:47.488Z,95648.00
2018-08-23T00:17:16.767Z,95654.00
2018-08-23T00:22:46.097Z,95654.00
2018-08-23T00:28:18.836Z,95660.00
2018-08-23T00:33:49.184Z,95669.00
2018-08-23T00:39:18.444Z,95672.00
2018-08-23T00:44:58.522Z,95673.00
2018-08-23T00:51:06.700Z,95665.00
2018-08-23T00:56:35.945Z,95669.00
2018-08-23T01:02:07.795Z,95665.00
2018-08-23T01:07:37.103Z,95657.00
2018-08-23T01:13:06.368Z,95653.00
2018-08-23T01:18:35.721Z,95653.00
2018-08-23T01:24:06.092Z,95647.00
2018-08-23T01:29:35.432Z,95645.00
2018-08-23T01:35:04.731Z,95643.00
2018-08-23T01:40:35.049Z,95635.00
2018-08-23T01:46:04.293Z,95630.00
2018-08-23T01:51:33.697Z,95630.00
2018-08-23T01:57:02.901Z,95622.00
2018-08-23T02:02:32.108Z,95622.00
2018-08-23T02:08:01.360Z,95618.00
2018-08-23T02:13:31.510Z,95609.00
2018-08-23T02:19:00.792Z,95602.00
2018-08-23T02:24:33.832Z,95605.00
2018-08-23T02:30:03.196Z,95606.00
2018-08-23T02:35:32.457Z,95614.00
2018-08-23T02:41:01.648Z,95612.00
2018-08-23T02:46:33.090Z,95611.00
2018-08-23T02:52:04.236Z,95617.00
2018-08-23T02:57:33.468Z,95619.00
2018-08-23T03:03:02.703Z,95610.00
2018-08-23T03:08:43.918Z,95615.00
2018-08-23T03:14:13.243Z,95614.00
2018-08-23T03:20:02.620Z,95613.00
2018-08-23T03:25:31.862Z,95620.00
2018-08-23T03:31:02.708Z,95614.00
2018-08-23T03:36:31.902Z,95619.00
2018-08-23T03:42:01.163Z,95612.00
2018-08-23T03:47:39.535Z,95614.00
2018-08-23T03:53:08.838Z,95609.00
2018-08-23T03:58:38.187Z,95605.00
2018-08-23T04:04:08.174Z,95609.00
2018-08-23T04:09:37.632Z,95621.00
2018-08-23T04:15:28.153Z,95618.00
2018-08-23T04:20:58.507Z,95620.00
2018-08-23T04:26:28.851Z,95623.00
2018-08-23T04:31:58.480Z,95626.00
2018-08-23T04:37:29.972Z,95622.00
2018-08-23T04:42:59.214Z,95626.00
2018-08-23T04:48:30.685Z,95624.00
2018-08-23T04:53:59.917Z,95620.00
2018-08-23T04:59:29.260Z,95620.00
2018-08-23T05:04:58.563Z,95627.00
2018-08-23T05:10:27.827Z,95623.00
2018-08-23T05:15:57.083Z,95617.00
2018-08-23T05:21:26.283Z,95615.00
2018-08-23T05:26:55.494Z,95616.00
2018-08-23T05:32:24.725Z,95605.00
2018-08-23T05:37:53.944Z,95609.00
2018-08-23T05:43:23.747Z,95613.00
2018-08-23T05:48:53.430Z,95609.00
2018-08-23T05:54:22.760Z,95607.00
2018-08-23T05:59:52.001Z,95615.00
2018-08-23T06:05:21.263Z,95616.00
2018-08-23T06:10:57.427Z,95626.00
2018-08-23T06:16:26.753Z,95631.00
2018-08-23T06:21:56.039Z,95633.00
2018-08-23T06:27:26.365Z,95641.00
2018-08-23T06:33:00.826Z,95633.00
2018-08-23T06:38:30.688Z,95634.00
2018-08-23T06:43:59.867Z,95636.00
2018-08-23T06:49:33.661Z,95630.00
2018-08-23T06:55:03.024Z,95628.00
2018-08-23T07:00:32.809Z,95624.00
2018-08-23T07:06:02.044Z,95621.00
2018-08-23T07:11:31.248Z,95619.00
2018-08-23T07:17:15.131Z,95623.00
2018-08-23T07:22:44.609Z,95614.00
2018-08-23T07:28:14.081Z,95619.00
2018-08-23T07:33:45.378Z,95613.00
2018-08-23T07:39:16.055Z,95619.00
2018-08-23T07:44:48.407Z,95618.00
2018-08-23T07:50:17.657Z,95618.00
2018-08-23T07:55:46.896Z,95622.00
2018-08-23T08:01:16.164Z,95636.00
2018-08-23T08:06:45.487Z,95629.00
2018-08-23T08:12:20.174Z,95627.00
2018-08-23T08:17:49.435Z,95624.00
2018-08-23T08:23:18.649Z,95622.00
2018-08-23T08:28:47.933Z,95619.00
2018-08-23T08:34:17.319Z,95633.00
2018-08-23T08:39:46.536Z,95625.00
2018-08-23T08:45:15.907Z,95626.00
2018-08-23T08:50:50.903Z,95614.00
2018-08-23T08:56:32.992Z,95620.00
2018-08-23T09:02:02.216Z,95612.00
2018-08-23T09:07:32.552Z,95607.00
2018-08-23T09:13:01.731Z,95604.00
2018-08-23T09:18:30.988Z,95598.00
2018-08-23T09:24:24.449Z,95595.00
2018-08-23T09:29:53.664Z,95589.00
2018-08-23T09:35:27.463Z,95580.00
2018-08-23T09:40:56.659Z,95579.00
2018-08-23T09:46:25.892Z,95578.00
2018-08-23T09:51:55.047Z,95575.00
2018-08-23T09:57:24.831Z,95573.00
2018-08-23T10:02:59.269Z,95566.00
2018-08-23T10:08:33.753Z,95572.00
2018-08-23T10:14:08.063Z,95558.00
2018-08-23T10:19:42.517Z,95556.00
2018-08-23T10:25:45.961Z,95548.00
2018-08-23T10:31:15.206Z,95544.00
2018-08-23T10:36:44.488Z,95550.00
2018-08-23T10:42:16.764Z,95553.00
2018-08-23T10:47:51.236Z,95535.00
2018-08-23T10:53:20.471Z,95530.00
2018-08-23T10:58:49.679Z,95521.00
2018-08-23T11:04:19.059Z,95521.00
2018-08-23T11:09:53.778Z,95513.00
2018-08-23T11:15:22.875Z,95521.00
2018-08-23T11:20:52.156Z,95523.00
2018-08-23T11:26:23.008Z,95515.00
2018-08-23T11:31:52.272Z,95506.00
2018-08-23T11:37:21.430Z,95506.00
2018-08-23T11:42:50.755Z,95502.00
2018-08-23T11:48:19.927Z,95504.00
2018-08-23T11:53:49.190Z,95500.00
2018-08-23T11:59:18.466Z,95484.00
2018-08-23T12:04:47.669Z,95482.00
2018-08-23T12:10:18.908Z,95488.00
2018-08-23T12:15:48.096Z,95464.00
2018-08-23T12:21:17.297Z,95466.00
2018-08-23T12:26:46.507Z,95453.00
2018-08-23T12:32:15.844Z,95447.00
2018-08-23T12:37:55.191Z,95450.00
2018-08-23T12:43:29.651Z,95434.00
2018-08-23T12:48:59.176Z,95421.00
2018-08-23T12:54:28.409Z,95434.00
2018-08-23T12:59:57.627Z,95429.00
2018-08-23T13:05:26.897Z,95415.00
2018-08-23T13:10:56.233Z,95417.00
2018-08-23T13:16:25.429Z,95400.00
2018-08-23T13:21:59.892Z,95404.00
2018-08-23T13:27:31.546Z,95401.00
2018-08-23T13:33:00.717Z,95386.00
2018-08-23T13:38:29.930Z,95373.00
2018-08-23T13:43:59.221Z,95390.00
2018-08-23T13:49:28.468Z,95388.00
2018-08-23T13:54:57.660Z,95377.00
2018-08-23T14:00:32.180Z,95377.00
2018-08-23T14:06:01.443Z,95375.00
2018-08-23T14:11:30.600Z,95355.00
2018-08-23T14:17:00.202Z,95352.00
2018-08-23T14:22:29.396Z,95326.00
2018-08-23T14:27:58.622Z,95337.00
2018-08-23T14:33:32.584Z,95357.00
2018-08-23T14:39:01.780Z,95378.00
2018-08-23T14:44:31.031Z,95383.00
2018-08-23T14:50:00.475Z,95380.00
2018-08-23T14:56:35.147Z,95407.00
2018-08-23T15:02:04.684Z,95402.00
2018-08-23T15:07:33.882Z,95453.00
2018-08-23T15:13:03.039Z,95451.00
2018-08-23T15:18:32.265Z,95498.00
2018-08-23T15:24:01.575Z,95516.00
2018-08-23T15:29:30.775Z,95556.00
2018-08-23T15:34:59.992Z,95524.00
2018-08-23T15:40:29.210Z,95489.00
2018-08-23T15:45:58.390Z,95487.00
2018-08-23T15:51:27.601Z,95492.00
2018-08-23T15:56:56.767Z,95474.00
2018-08-23T16:02:26.479Z,95470.00
2018-08-23T16:07:55.902Z,95472.00
2018-08-23T16:13:25.212Z,95462.00
2018-08-23T16:19:00.536Z,95440.00
2018-08-23T16:24:29.767Z,95423.00
2018-08-23T16:29:58.975Z,95411.00
2018-08-23T16:35:28.176Z,95398.00
2018-08-23T16:40:57.411Z,95390.00
2018-08-23T16:46:26.600Z,95388.00
2018-08-23T16:51:55.781Z,95393.00
2018-08-23T16:57:25.035Z,95403.00
2018-08-23T17:02:55.437Z,95413.00
2018-08-23T17:08:25.092Z,95412.00
2018-08-23T17:13:54.340Z,95408.00
2018-08-23T17:19:23.626Z,95421.00
2018-08-23T17:24:52.848Z,95418.00
2018-08-23T17:30:22.071Z,95424.00
2018-08-23T17:35:51.336Z,95441.00
2018-08-23T17:41:20.569Z,95471.00
2018-08-23T17:46:51.120Z,95479.00
2018-08-23T17:52:20.363Z,95475.00
2018-08-23T17:57:49.623Z,95478.00
2018-08-23T18:03:18.955Z,95478.00
2018-08-23T18:08:52.766Z,95484.00
2018-08-23T18:14:22.067Z,95476.00
2018-08-23T18:19:51.554Z,95469.00
2018-08-23T18:25:20.856Z,95466.00
2018-08-23T18:30:50.033Z,95470.00
2018-08-23T18:36:19.764Z,95474.00
2018-08-23T18:41:49.410Z,95467.00
2018-08-23T18:47:20.367Z,95466.00
2018-08-23T18:52:49.716Z,95448.00
2018-08-23T18:58:19.040Z,95468.00
2018-08-23T19:03:48.403Z,95464.00
2018-08-23T19:09:17.757Z,95464.00
2018-08-23T19:14:47.041Z,95463.00
2018-08-23T19:20:16.355Z,95478.00
2018-08-23T19:25:47.654Z,95482.00
2018-08-23T19:31:17.001Z,95483.00
2018-08-23T19:36:46.337Z,95486.00
2018-08-23T19:42:15.722Z,95486.00
2018-08-23T19:47:57.045Z,95483.00
2018-08-23T19:53:26.316Z,95483.00
2018-08-23T19:58:55.586Z,95480.00
2018-08-23T20:04:24.953Z,95485.00
2018-08-23T20:09:54.233Z,95487.00
2018-08-23T20:15:25.393Z,95490.00
2018-08-23T20:20:54.675Z,95484.00
2018-08-23T20:26:24.138Z,95489.00
2018-08-23T20:31:56.587Z,95484.00
2018-08-23T20:37:25.779Z,95484.00
2018-08-23T20:42:55.000Z,95477.00
2018-08-23T20:48:24.391Z,95473.00
2018-08-23T20:53:53.651Z,95472.00
2018-08-23T20:59:22.955Z,95468.00
2018-08-23T21:04:52.616Z,95450.00
2018-08-23T21:10:22.064Z,95450.00
2018-08-23T21:15:51.560Z,95451.00
2018-08-23T21:21:20.972Z,95446.00
2018-08-23T21:26:50.224Z,95443.00
2018-08-23T21:32:20.480Z,95446.00
2018-08-23T21:37:49.933Z,95441.00
2018-08-23T21:43:19.198Z,95452.00
2018-08-23T21:48:48.424Z,95449.00
2018-08-23T21:54:17.710Z,95442.00
2018-08-23T21:59:47.111Z,95426.00
2018-08-23T22:05:17.471Z,95425.00
2018-08-23T22:10:46.744Z,95416.00
2018-08-23T22:16:16.064Z,95408.00
2018-08-23T22:21:45.325Z,95402.00
2018-08-23T22:27:14.827Z,95407.00
2018-08-23T22:32:44.348Z,95390.00
2018-08-23T22:38:13.753Z,95400.00
2018-08-23T22:43:43.091Z,95396.00
2018-08-23T22:49:12.481Z,95396.00
2018-08-23T22:54:41.832Z,95379.00
2018-08-23T23:00:11.072Z,95378.00
2018-08-23T23:05:40.428Z,95369.00
2018-08-23T23:11:10.599Z,95362.00
2018-08-23T23:16:39.904Z,95355.00
2018-08-23T23:22:09.219Z,95358.00
2018-08-23T23:27:38.442Z,95357.00
2018-08-23T23:33:08.080Z,95359.00
2018-08-23T23:38:37.364Z,95359.00
2018-08-23T23:44:06.630Z,95362.00
2018-08-23T23:49:35.823Z,95363.00
2018-08-23T23:55:05.149Z,95345.00
